createdAt,value
2023-05-10T00:00:43.803Z,0.00
2023-05-10T00:01:44.469Z,0.00
2023-05-10T00:02:43.835Z,0.00
2023-05-10T00:03:43.873Z,0.00
2023-05-10T00:04:43.769Z,0.00
2023-05-10T00:05:43.767Z,0.00
2023-05-10T00:06:43.771Z,0.00
2023-05-10T00:07:43.755Z,0.00
2023-05-10T00:08:43.733Z,0.00
2023-05-10T00:09:43.753Z,0.00
2023-05-10T00:10:43.700Z,0.00
2023-05-10T00:11:43.755Z,0.00
2023-05-10T00:12:43.724Z,0.00
2023-05-10T00:13:43.725Z,0.00
2023-05-10T00:14:43.665Z,0.00
2023-05-10T00:15:43.651Z,0.00
2023-05-10T00:16:43.682Z,0.00
2023-05-10T00:17:43.637Z,0.00
2023-05-10T00:18:43.671Z,0.00
2023-05-10T00:19:43.604Z,0.00
2023-05-10T00:20:43.655Z,0.00
2023-05-10T00:21:43.601Z,0.00
2023-05-10T00:22:43.586Z,0.00
2023-05-10T00:23:43.558Z,0.00
2023-05-10T00:24:43.606Z,0.00
2023-05-10T00:25:43.537Z,0.00
2023-05-10T00:26:43.545Z,0.00
2023-05-10T00:27:43.519Z,0.00
2023-05-10T00:28:43.545Z,0.00
2023-05-10T00:29:43.553Z,0.00
2023-05-10T00:30:44.152Z,0.00
2023-05-10T00:31:43.501Z,0.00
2023-05-10T00:32:43.534Z,0.00
2023-05-10T00:33:43.467Z,0.00
2023-05-10T00:34:43.464Z,0.00
2023-05-10T00:35:43.443Z,0.00
2023-05-10T00:36:43.431Z,0.00
2023-05-10T00:37:43.442Z,0.00
2023-05-10T00:38:43.436Z,0.00
2023-05-10T00:39:43.388Z,0.00
2023-05-10T00:40:43.397Z,0.00
2023-05-10T00:41:43.357Z,0.00
2023-05-10T00:42:43.407Z,0.00
2023-05-10T00:43:49.872Z,0.00
2023-05-10T00:44:43.377Z,0.00
2023-05-10T00:45:43.360Z,0.00
2023-05-10T00:46:43.323Z,0.00
2023-05-10T00:47:43.401Z,0.00
2023-05-10T00:48:43.316Z,0.00
2023-05-10T00:49:43.275Z,0.00
2023-05-10T00:50:43.332Z,0.00
2023-05-10T00:51:43.260Z,0.00
2023-05-10T00:52:43.266Z,0.00
2023-05-10T00:53:43.229Z,0.00
2023-05-10T00:54:43.264Z,0.00
2023-05-10T00:55:43.210Z,0.00
2023-05-10T00:56:43.226Z,0.00
2023-05-10T00:57:43.184Z,0.00
2023-05-10T00:58:43.224Z,0.00
2023-05-10T00:59:43.179Z,0.00
2023-05-10T01:00:44.325Z,0.00
2023-05-10T01:01:43.206Z,0.00
2023-05-10T01:02:43.279Z,0.00
2023-05-10T01:03:43.119Z,0.00
2023-05-10T01:04:43.211Z,0.00
2023-05-10T01:05:43.134Z,0.00
2023-05-10T01:06:43.108Z,0.00
2023-05-10T01:07:43.105Z,0.00
2023-05-10T01:08:43.099Z,0.00
2023-05-10T01:09:43.073Z,0.00
2023-05-10T01:10:43.096Z,0.00
2023-05-10T01:11:43.055Z,0.00
2023-05-10T01:12:43.186Z,0.00
2023-05-10T01:13:43.056Z,0.00
2023-05-10T01:14:43.041Z,0.00
2023-05-10T01:15:43.045Z,0.00
2023-05-10T01:16:43.016Z,0.00
2023-05-10T01:17:42.985Z,0.00
2023-05-10T01:18:43.017Z,0.00
2023-05-10T01:19:42.980Z,0.00
2023-05-10T01:20:42.968Z,0.00
2023-05-10T01:21:42.935Z,0.00
2023-05-10T01:22:42.956Z,0.00
2023-05-10T01:23:42.921Z,0.00
2023-05-10T01:24:42.956Z,0.00
2023-05-10T01:25:42.888Z,0.00
2023-05-10T01:26:42.921Z,0.00
2023-05-10T01:27:42.869Z,0.00
2023-05-10T01:28:42.931Z,0.00
2023-05-10T01:29:42.850Z,0.00
2023-05-10T01:30:43.297Z,0.00
2023-05-10T01:31:42.910Z,0.00
2023-05-10T01:32:42.862Z,0.00
2023-05-10T01:33:42.812Z,0.00
2023-05-10T01:34:42.823Z,0.00
2023-05-10T01:35:42.811Z,0.00
2023-05-10T01:36:42.801Z,0.00
2023-05-10T01:37:42.763Z,0.00
2023-05-10T01:38:42.815Z,0.00
2023-05-10T01:39:42.746Z,0.00
2023-05-10T01:40:42.765Z,0.00
2023-05-10T01:41:42.721Z,0.00
2023-05-10T01:42:42.734Z,0.00
2023-05-10T01:43:42.730Z,0.00
2023-05-10T01:44:42.716Z,0.00
2023-05-10T01:45:42.689Z,0.00
2023-05-10T01:46:42.719Z,0.00
2023-05-10T01:47:42.686Z,0.00
2023-05-10T01:48:42.660Z,0.00
2023-05-10T01:49:42.694Z,0.00
2023-05-10T01:50:42.649Z,0.00
2023-05-10T01:51:42.616Z,0.00
2023-05-10T01:52:42.635Z,0.00
2023-05-10T01:53:42.588Z,0.00
2023-05-10T01:54:42.626Z,0.00
2023-05-10T01:55:42.578Z,0.00
2023-05-10T01:56:42.594Z,0.00
2023-05-10T01:57:42.552Z,0.00
2023-05-10T01:58:42.567Z,0.00
2023-05-10T01:59:42.555Z,0.00
2023-05-10T02:00:42.564Z,0.00
2023-05-10T02:01:42.534Z,0.00
2023-05-10T02:02:42.554Z,0.00
2023-05-10T02:03:42.520Z,0.00
2023-05-10T02:04:42.499Z,0.00
2023-05-10T02:05:42.511Z,0.00
2023-05-10T02:06:42.482Z,0.00
2023-05-10T02:07:42.463Z,0.00
2023-05-10T02:08:42.464Z,0.00
2023-05-10T02:09:42.430Z,0.00
2023-05-10T02:10:42.486Z,0.00
2023-05-10T02:11:42.408Z,0.00
2023-05-10T02:12:42.450Z,0.00
2023-05-10T02:13:42.380Z,0.00
2023-05-10T02:14:42.438Z,0.00
2023-05-10T02:15:42.398Z,0.00
2023-05-10T02:16:42.487Z,0.00
2023-05-10T02:17:42.381Z,0.00
2023-05-10T02:18:42.352Z,0.00
2023-05-10T02:19:42.335Z,0.00
2023-05-10T02:20:42.373Z,0.00
2023-05-10T02:21:42.316Z,0.00
2023-05-10T02:22:42.324Z,0.00
2023-05-10T02:23:42.273Z,0.00
2023-05-10T02:24:42.293Z,0.00
2023-05-10T02:25:42.298Z,0.00
2023-05-10T02:26:42.271Z,0.00
2023-05-10T02:27:42.244Z,0.00
2023-05-10T02:28:42.250Z,0.00
2023-05-10T02:29:42.215Z,0.00
2023-05-10T02:30:42.284Z,0.00
2023-05-10T02:31:42.216Z,0.00
2023-05-10T02:32:42.279Z,0.00
2023-05-10T02:33:42.161Z,0.00
2023-05-10T02:34:42.188Z,0.00
2023-05-10T02:35:42.165Z,0.00
2023-05-10T02:36:42.186Z,0.00
2023-05-10T02:37:42.138Z,0.00
2023-05-10T02:38:42.141Z,0.00
2023-05-10T02:39:42.116Z,0.00
2023-05-10T02:40:42.168Z,0.00
2023-05-10T02:41:42.091Z,0.00
2023-05-10T02:42:42.115Z,0.00
2023-05-10T02:43:42.076Z,0.00
2023-05-10T02:44:42.087Z,0.00
2023-05-10T02:45:42.103Z,0.00
2023-05-10T02:46:42.069Z,0.00
2023-05-10T02:47:42.107Z,0.00
2023-05-10T02:48:42.048Z,0.00
2023-05-10T02:49:42.016Z,0.00
2023-05-10T02:50:42.047Z,0.00
2023-05-10T02:51:42.008Z,0.00
2023-05-10T02:52:42.007Z,0.00
2023-05-10T02:53:42.000Z,0.00
2023-05-10T02:54:42.016Z,0.00
2023-05-10T02:55:41.974Z,0.00
2023-05-10T02:56:41.960Z,0.00
2023-05-10T02:57:41.922Z,0.00
2023-05-10T02:58:41.977Z,0.00
2023-05-10T02:59:41.894Z,0.00
2023-05-10T03:00:41.907Z,0.00
2023-05-10T03:01:41.932Z,0.00
2023-05-10T03:02:41.919Z,0.00
2023-05-10T03:03:41.904Z,0.00
2023-05-10T03:04:41.906Z,0.00
2023-05-10T03:05:41.853Z,0.00
2023-05-10T03:06:41.854Z,0.00
2023-05-10T03:07:41.852Z,0.00
2023-05-10T03:08:41.833Z,0.00
2023-05-10T03:09:41.807Z,0.00
2023-05-10T03:10:41.846Z,0.00
2023-05-10T03:11:41.782Z,0.00
2023-05-10T03:12:41.834Z,0.00
2023-05-10T03:13:41.792Z,0.00
2023-05-10T03:14:41.770Z,0.00
2023-05-10T03:15:41.802Z,0.00
2023-05-10T03:16:44.159Z,0.00
2023-05-10T03:17:41.741Z,0.00
2023-05-10T03:18:41.746Z,0.00
2023-05-10T03:19:41.728Z,0.00
2023-05-10T03:20:41.714Z,0.00
2023-05-10T03:21:41.681Z,0.00
2023-05-10T03:22:41.689Z,0.00
2023-05-10T03:23:41.628Z,1.00
2023-05-10T03:24:41.664Z,0.00
2023-05-10T03:25:41.639Z,1.00
2023-05-10T03:26:41.642Z,1.00
2023-05-10T03:27:41.558Z,1.00
2023-05-10T03:28:41.636Z,0.00
2023-05-10T03:29:41.611Z,0.00
2023-05-10T03:30:41.604Z,0.00
2023-05-10T03:31:41.638Z,0.00
2023-05-10T03:32:41.670Z,0.00
2023-05-10T03:33:41.557Z,0.00
2023-05-10T03:34:41.567Z,0.00
2023-05-10T03:35:41.542Z,0.00
2023-05-10T03:36:41.539Z,2.00
2023-05-10T03:37:56.419Z,2.00
2023-05-10T03:38:41.492Z,2.00
2023-05-10T03:39:41.461Z,2.00
2023-05-10T03:40:41.442Z,2.00
2023-05-10T03:41:41.432Z,2.00
2023-05-10T03:42:41.436Z,3.00
2023-05-10T03:43:41.460Z,3.00
2023-05-10T03:44:41.435Z,1.00
2023-05-10T03:45:41.379Z,2.00
2023-05-10T03:46:41.379Z,2.00
2023-05-10T03:47:41.387Z,1.00
2023-05-10T03:48:41.364Z,5.00
2023-05-10T03:49:41.356Z,5.00
2023-05-10T03:50:41.347Z,6.00
2023-05-10T03:51:41.320Z,2.00
2023-05-10T03:52:41.318Z,2.00
2023-05-10T03:53:41.320Z,5.00
2023-05-10T03:54:41.303Z,4.00
2023-05-10T03:55:41.273Z,3.00
2023-05-10T03:56:41.326Z,8.00
2023-05-10T03:57:41.247Z,5.00
2023-05-10T03:58:41.277Z,5.00
2023-05-10T03:59:41.237Z,8.00
2023-05-10T04:00:41.246Z,7.00
2023-05-10T04:01:41.237Z,7.00
2023-05-10T04:02:41.570Z,11.00
2023-05-10T04:03:41.229Z,8.00
2023-05-10T04:04:41.191Z,9.00
2023-05-10T04:05:41.174Z,11.00
2023-05-10T04:06:41.213Z,12.00
2023-05-10T04:07:41.151Z,9.00
2023-05-10T04:08:41.181Z,16.00
2023-05-10T04:09:41.136Z,12.00
2023-05-10T04:10:41.139Z,14.00
2023-05-10T04:11:41.139Z,12.00
2023-05-10T04:12:41.141Z,13.00
2023-05-10T04:13:41.101Z,20.00
2023-05-10T04:14:41.111Z,14.00
2023-05-10T04:15:41.076Z,15.00
2023-05-10T04:16:41.140Z,15.00
2023-05-10T04:17:41.115Z,17.00
2023-05-10T04:18:41.058Z,23.00
2023-05-10T04:19:41.018Z,22.00
2023-05-10T04:20:41.083Z,26.00
2023-05-10T04:21:41.007Z,24.00
2023-05-10T04:22:41.011Z,27.00
2023-05-10T04:23:40.977Z,32.00
2023-05-10T04:24:41.017Z,28.00
2023-05-10T04:25:40.947Z,29.00
2023-05-10T04:26:41.007Z,38.00
2023-05-10T04:27:40.946Z,35.00
2023-05-10T04:28:40.968Z,38.00
2023-05-10T04:29:40.970Z,41.00
2023-05-10T04:30:40.966Z,43.00
2023-05-10T04:31:40.922Z,41.00
2023-05-10T04:32:40.935Z,37.00
2023-05-10T04:33:40.898Z,37.00
2023-05-10T04:34:40.857Z,45.00
2023-05-10T04:35:40.940Z,51.00
2023-05-10T04:36:40.891Z,46.00
2023-05-10T04:37:40.875Z,57.00
2023-05-10T04:38:40.836Z,55.00
2023-05-10T04:39:42.352Z,53.00
2023-05-10T04:40:40.836Z,57.00
2023-05-10T04:41:40.834Z,57.00
2023-05-10T04:42:40.773Z,49.00
2023-05-10T04:43:40.803Z,49.00
2023-05-10T04:44:40.763Z,56.00
2023-05-10T04:45:40.766Z,63.00
2023-05-10T04:46:40.825Z,63.00
2023-05-10T04:47:40.760Z,67.00
2023-05-10T04:48:40.740Z,69.00
2023-05-10T04:49:40.732Z,66.00
2023-05-10T04:50:40.697Z,61.00
2023-05-10T04:51:40.737Z,60.00
2023-05-10T04:52:40.684Z,62.00
2023-05-10T04:53:41.800Z,69.00
2023-05-10T04:54:40.658Z,75.00
2023-05-10T04:55:40.666Z,81.00
2023-05-10T04:56:40.658Z,98.00
2023-05-10T04:57:40.681Z,109.00
2023-05-10T04:58:40.609Z,116.00
2023-05-10T04:59:40.636Z,113.00
2023-05-10T05:00:40.609Z,106.00
2023-05-10T05:01:40.698Z,103.00
2023-05-10T05:02:40.677Z,109.00
2023-05-10T05:03:40.715Z,109.00
2023-05-10T05:04:40.565Z,105.00
2023-05-10T05:05:40.599Z,148.00
2023-05-10T05:06:40.548Z,132.00
2023-05-10T05:07:40.574Z,126.00
2023-05-10T05:08:40.523Z,128.00
2023-05-10T05:09:40.530Z,125.00
2023-05-10T05:10:40.528Z,119.00
2023-05-10T05:11:40.544Z,111.00
2023-05-10T05:12:40.484Z,113.00
2023-05-10T05:13:40.488Z,100.00
2023-05-10T05:14:40.459Z,96.00
2023-05-10T05:15:40.490Z,93.00
2023-05-10T05:16:40.514Z,87.00
2023-05-10T05:17:40.456Z,76.00
2023-05-10T05:18:40.402Z,71.00
2023-05-10T05:19:40.429Z,67.00
2023-05-10T05:20:40.401Z,68.00
2023-05-10T05:21:40.429Z,76.00
2023-05-10T05:22:40.375Z,80.00
2023-05-10T05:23:40.375Z,86.00
2023-05-10T05:24:40.354Z,84.00
2023-05-10T05:25:40.373Z,83.00
2023-05-10T05:26:40.362Z,90.00
2023-05-10T05:27:40.360Z,100.00
2023-05-10T05:28:40.314Z,112.00
2023-05-10T05:29:40.324Z,99.00
2023-05-10T05:30:40.300Z,105.00
2023-05-10T05:31:40.358Z,80.00
2023-05-10T05:32:40.324Z,71.00
2023-05-10T05:33:40.288Z,67.00
2023-05-10T05:34:40.251Z,59.00
2023-05-10T05:35:40.263Z,58.00
2023-05-10T05:36:40.257Z,66.00
2023-05-10T05:37:40.275Z,79.00
2023-05-10T05:38:40.207Z,82.00
2023-05-10T05:39:40.211Z,92.00
2023-05-10T05:40:40.181Z,92.00
2023-05-10T05:41:40.194Z,91.00
2023-05-10T05:42:40.190Z,90.00
2023-05-10T05:43:40.173Z,93.00
2023-05-10T05:44:40.140Z,94.00
2023-05-10T05:45:40.183Z,88.00
2023-05-10T05:46:40.146Z,85.00
2023-05-10T05:47:40.215Z,87.00
2023-05-10T05:48:40.089Z,85.00
2023-05-10T05:49:40.121Z,81.00
2023-05-10T05:50:40.095Z,72.00
2023-05-10T05:51:40.112Z,73.00
2023-05-10T05:52:40.068Z,74.00
2023-05-10T05:53:40.465Z,77.00
2023-05-10T05:54:40.039Z,77.00
2023-05-10T05:55:40.066Z,80.00
2023-05-10T05:56:40.028Z,79.00
2023-05-10T05:57:40.053Z,76.00
2023-05-10T05:58:40.037Z,76.00
2023-05-10T05:59:40.005Z,68.00
2023-05-10T06:00:39.981Z,73.00
2023-05-10T06:01:40.120Z,80.00
2023-05-10T06:02:40.143Z,86.00
2023-05-10T06:03:40.065Z,88.00
2023-05-10T06:04:40.165Z,86.00
2023-05-10T06:05:39.982Z,85.00
2023-05-10T06:06:40.020Z,91.00
2023-05-10T06:07:39.937Z,94.00
2023-05-10T06:08:39.896Z,96.00
2023-05-10T06:09:39.917Z,101.00
2023-05-10T06:10:39.908Z,116.00
2023-05-10T06:11:39.890Z,132.00
2023-05-10T06:12:39.849Z,132.00
2023-05-10T06:13:39.873Z,140.00
2023-05-10T06:14:39.861Z,135.00
2023-05-10T06:15:39.868Z,130.00
2023-05-10T06:16:39.863Z,110.00
2023-05-10T06:17:39.964Z,109.00
2023-05-10T06:18:39.797Z,121.00
2023-05-10T06:19:39.820Z,109.00
2023-05-10T06:20:39.780Z,108.00
2023-05-10T06:21:39.848Z,107.00
2023-05-10T06:22:39.772Z,100.00
2023-05-10T06:23:39.798Z,103.00
2023-05-10T06:24:39.733Z,111.00
2023-05-10T06:25:39.750Z,112.00
2023-05-10T06:26:39.715Z,108.00
2023-05-10T06:27:39.718Z,98.00
2023-05-10T06:28:39.723Z,97.00
2023-05-10T06:29:39.718Z,105.00
2023-05-10T06:30:39.661Z,101.00
2023-05-10T06:31:40.612Z,94.00
2023-05-10T06:32:39.660Z,95.00
2023-05-10T06:33:39.706Z,100.00
2023-05-10T06:34:39.634Z,101.00
2023-05-10T06:35:39.658Z,93.00
2023-05-10T06:36:39.606Z,108.00
2023-05-10T06:37:39.634Z,105.00
2023-05-10T06:38:39.633Z,110.00
2023-05-10T06:39:39.594Z,127.00
2023-05-10T06:40:39.628Z,134.00
2023-05-10T06:41:39.599Z,127.00
2023-05-10T06:42:39.560Z,116.00
2023-05-10T06:43:39.566Z,101.00
2023-05-10T06:44:39.530Z,99.00
2023-05-10T06:45:39.571Z,96.00
2023-05-10T06:46:39.559Z,91.00
2023-05-10T06:47:39.717Z,97.00
2023-05-10T06:48:39.527Z,102.00
2023-05-10T06:49:39.504Z,103.00
2023-05-10T06:50:39.485Z,100.00
2023-05-10T06:51:39.483Z,102.00
2023-05-10T06:52:39.486Z,97.00
2023-05-10T06:53:39.455Z,109.00
2023-05-10T06:54:39.436Z,101.00
2023-05-10T06:55:39.463Z,96.00
2023-05-10T06:56:39.444Z,91.00
2023-05-10T06:57:39.452Z,96.00
2023-05-10T06:58:39.428Z,90.00
2023-05-10T06:59:39.517Z,90.00
2023-05-10T07:00:39.467Z,85.00
2023-05-10T07:01:39.458Z,76.00
2023-05-10T07:02:39.396Z,67.00
2023-05-10T07:03:39.391Z,63.00
2023-05-10T07:04:39.367Z,56.00
2023-05-10T07:05:39.625Z,58.00
2023-05-10T07:06:39.299Z,113.00
2023-05-10T07:07:39.343Z,131.00
2023-05-10T07:08:39.296Z,121.00
2023-05-10T07:09:39.319Z,116.00
2023-05-10T07:10:39.294Z,102.00
2023-05-10T07:11:39.265Z,113.00
2023-05-10T07:12:39.373Z,139.00
2023-05-10T07:13:39.291Z,157.00
2023-05-10T07:14:39.247Z,168.00
2023-05-10T07:15:39.265Z,186.00
2023-05-10T07:16:39.232Z,199.00
2023-05-10T07:17:39.259Z,215.00
2023-05-10T07:18:39.261Z,219.00
2023-05-10T07:19:39.203Z,222.00
2023-05-10T07:20:39.160Z,205.00
2023-05-10T07:21:39.174Z,182.00
2023-05-10T07:22:39.130Z,186.00
2023-05-10T07:23:39.178Z,187.00
2023-05-10T07:24:39.123Z,192.00
2023-05-10T07:25:39.141Z,191.00
2023-05-10T07:26:39.127Z,210.00
2023-05-10T07:27:39.108Z,221.00
2023-05-10T07:28:39.081Z,244.00
2023-05-10T07:29:39.103Z,273.00
2023-05-10T07:30:39.078Z,285.00
2023-05-10T07:31:39.106Z,303.00
2023-05-10T07:32:39.165Z,327.00
2023-05-10T07:33:39.055Z,354.00
2023-05-10T07:34:39.005Z,387.00
2023-05-10T07:35:39.059Z,429.00
2023-05-10T07:36:38.991Z,473.00
2023-05-10T07:37:39.028Z,493.00
2023-05-10T07:38:40.906Z,483.00
2023-05-10T07:39:39.101Z,481.00
2023-05-10T07:40:38.976Z,500.00
2023-05-10T07:41:38.967Z,525.00
2023-05-10T07:42:38.959Z,558.00
2023-05-10T07:43:38.950Z,619.00
2023-05-10T07:44:38.904Z,693.00
2023-05-10T07:45:38.974Z,748.00
2023-05-10T07:46:38.929Z,779.00
2023-05-10T07:47:38.957Z,756.00
2023-05-10T07:48:38.865Z,745.00
2023-05-10T07:49:38.883Z,737.00
2023-05-10T07:50:38.868Z,725.00
2023-05-10T07:51:38.875Z,697.00
2023-05-10T07:52:38.833Z,721.00
2023-05-10T07:53:38.839Z,782.00
2023-05-10T07:54:38.811Z,801.00
2023-05-10T07:55:38.819Z,797.00
2023-05-10T07:56:38.827Z,775.00
2023-05-10T07:57:38.807Z,780.00
2023-05-10T07:58:38.774Z,761.00
2023-05-10T07:59:38.812Z,772.00
2023-05-10T08:00:46.169Z,746.00
2023-05-10T08:01:38.757Z,661.00
2023-05-10T08:02:38.789Z,700.00
2023-05-10T08:03:38.890Z,737.00
2023-05-10T08:04:38.798Z,797.00
2023-05-10T08:05:38.711Z,822.00
2023-05-10T08:06:38.702Z,833.00
2023-05-10T08:07:38.692Z,1080.00
2023-05-10T08:08:38.661Z,1216.00
2023-05-10T08:09:38.723Z,693.00
2023-05-10T08:10:38.640Z,1778.00
2023-05-10T08:11:38.671Z,1127.00
2023-05-10T08:12:38.674Z,901.00
2023-05-10T08:13:38.631Z,694.00
2023-05-10T08:14:38.646Z,767.00
2023-05-10T08:15:38.631Z,638.00
2023-05-10T08:16:38.572Z,551.00
2023-05-10T08:17:38.693Z,628.00
2023-05-10T08:18:38.583Z,553.00
2023-05-10T08:19:38.567Z,785.00
2023-05-10T08:20:38.532Z,844.00
2023-05-10T08:21:38.550Z,717.00
2023-05-10T08:22:38.533Z,713.00
2023-05-10T08:23:38.532Z,743.00
2023-05-10T08:24:38.521Z,699.00
2023-05-10T08:25:38.511Z,687.00
2023-05-10T08:26:38.469Z,743.00
2023-05-10T08:27:38.525Z,731.00
2023-05-10T08:28:38.447Z,748.00
2023-05-10T08:29:49.028Z,694.00
2023-05-10T08:30:38.464Z,611.00
2023-05-10T08:31:38.485Z,582.00
2023-05-10T08:32:38.512Z,624.00
2023-05-10T08:33:38.447Z,734.00
2023-05-10T08:34:38.387Z,895.00
2023-05-10T08:35:38.386Z,832.00
2023-05-10T08:36:38.376Z,635.00
2023-05-10T08:37:38.372Z,1289.00
2023-05-10T08:38:38.386Z,1532.00
2023-05-10T08:39:38.431Z,1067.00
2023-05-10T08:40:38.306Z,910.00
2023-05-10T08:41:38.323Z,876.00
2023-05-10T08:42:38.315Z,1108.00
2023-05-10T08:43:38.306Z,1254.00
2023-05-10T08:44:38.277Z,1009.00
2023-05-10T08:45:38.298Z,871.00
2023-05-10T08:46:38.313Z,891.00
2023-05-10T08:47:38.303Z,1062.00
2023-05-10T08:48:38.280Z,988.00
2023-05-10T08:49:38.210Z,938.00
2023-05-10T08:50:38.227Z,1371.00
2023-05-10T08:51:38.372Z,1385.00
2023-05-10T08:52:38.211Z,1588.00
2023-05-10T08:53:38.180Z,1130.00
2023-05-10T08:54:38.179Z,944.00
2023-05-10T08:55:38.141Z,1025.00
2023-05-10T08:56:45.118Z,616.00
2023-05-10T08:57:38.146Z,635.00
2023-05-10T08:58:38.140Z,471.00
2023-05-10T08:59:38.112Z,1908.00
2023-05-10T09:00:38.283Z,573.00
2023-05-10T09:01:38.126Z,2280.00
2023-05-10T09:02:38.238Z,2464.00
2023-05-10T09:03:38.075Z,580.00
2023-05-10T09:04:38.173Z,2011.00
2023-05-10T09:05:38.044Z,1723.00
2023-05-10T09:06:38.143Z,1525.00
2023-05-10T09:07:38.010Z,1493.00
2023-05-10T09:08:38.058Z,554.00
2023-05-10T09:09:38.004Z,1542.00
2023-05-10T09:10:38.007Z,1737.00
2023-05-10T09:11:37.987Z,1900.00
2023-05-10T09:12:38.396Z,1475.00
2023-05-10T09:13:37.951Z,1359.00
2023-05-10T09:14:37.970Z,847.00
2023-05-10T09:15:37.958Z,840.00
2023-05-10T09:16:38.095Z,815.00
2023-05-10T09:17:37.960Z,826.00
2023-05-10T09:18:37.984Z,903.00
2023-05-10T09:19:37.940Z,939.00
2023-05-10T09:20:37.905Z,911.00
2023-05-10T09:21:37.898Z,864.00
2023-05-10T09:22:37.890Z,1004.00
2023-05-10T09:23:37.855Z,1002.00
2023-05-10T09:24:37.909Z,859.00
2023-05-10T09:25:37.828Z,687.00
2023-05-10T09:26:37.932Z,1468.00
2023-05-10T09:27:37.813Z,693.00
2023-05-10T09:28:37.879Z,2222.00
2023-05-10T09:29:37.794Z,1088.00
2023-05-10T09:30:37.873Z,1417.00
2023-05-10T09:31:37.793Z,1100.00
2023-05-10T09:32:37.784Z,802.00
2023-05-10T09:33:37.739Z,932.00
2023-05-10T09:34:37.754Z,1369.00
2023-05-10T09:35:37.794Z,1046.00
2023-05-10T09:36:37.799Z,1429.00
2023-05-10T09:37:37.692Z,1021.00
2023-05-10T09:38:37.724Z,1156.00
2023-05-10T09:39:37.685Z,990.00
2023-05-10T09:40:37.730Z,1039.00
2023-05-10T09:41:37.659Z,1067.00
2023-05-10T09:42:37.698Z,1010.00
2023-05-10T09:43:37.631Z,873.00
2023-05-10T09:44:37.647Z,1488.00
2023-05-10T09:45:39.010Z,1054.00
2023-05-10T09:46:37.692Z,1024.00
2023-05-10T09:47:37.701Z,1089.00
2023-05-10T09:48:37.610Z,937.00
2023-05-10T09:49:37.592Z,785.00
2023-05-10T09:50:37.615Z,1003.00
2023-05-10T09:51:37.588Z,1026.00
2023-05-10T09:52:37.578Z,937.00
2023-05-10T09:53:37.548Z,1245.00
2023-05-10T09:54:37.611Z,1234.00
2023-05-10T09:55:37.525Z,547.00
2023-05-10T09:56:37.538Z,2015.00
2023-05-10T09:57:37.515Z,1900.00
2023-05-10T09:58:37.501Z,842.00
2023-05-10T09:59:37.463Z,743.00
2023-05-10T10:00:37.502Z,690.00
2023-05-10T10:01:37.452Z,709.00
2023-05-10T10:02:37.535Z,630.00
2023-05-10T10:03:37.465Z,571.00
2023-05-10T10:04:37.494Z,631.00
2023-05-10T10:05:37.386Z,1327.00
2023-05-10T10:06:37.397Z,893.00
2023-05-10T10:07:37.399Z,736.00
2023-05-10T10:08:37.413Z,604.00
2023-05-10T10:09:37.359Z,546.00
2023-05-10T10:10:37.381Z,584.00
2023-05-10T10:11:37.332Z,652.00
2023-05-10T10:12:37.345Z,719.00
2023-05-10T10:13:37.329Z,840.00
2023-05-10T10:14:37.342Z,670.00
2023-05-10T10:15:37.370Z,843.00
2023-05-10T10:16:39.950Z,1380.00
2023-05-10T10:17:37.276Z,1507.00
2023-05-10T10:18:37.375Z,2174.00
2023-05-10T10:19:37.667Z,1599.00
2023-05-10T10:20:37.281Z,1577.00
2023-05-10T10:21:37.224Z,2170.00
2023-05-10T10:22:37.235Z,2480.00
2023-05-10T10:23:37.246Z,1563.00
2023-05-10T10:24:37.223Z,1157.00
2023-05-10T10:25:37.178Z,2544.00
2023-05-10T10:26:37.181Z,2520.00
2023-05-10T10:27:37.155Z,2337.00
2023-05-10T10:28:37.190Z,607.00
2023-05-10T10:29:37.126Z,964.00
2023-05-10T10:30:37.156Z,1750.00
2023-05-10T10:31:37.284Z,2196.00
2023-05-10T10:32:37.134Z,2084.00
2023-05-10T10:33:37.145Z,2205.00
2023-05-10T10:34:37.094Z,2129.00
2023-05-10T10:35:37.097Z,3281.00
2023-05-10T10:36:37.080Z,956.00
2023-05-10T10:37:37.050Z,2797.00
2023-05-10T10:38:37.046Z,1979.00
2023-05-10T10:39:37.020Z,2511.00
2023-05-10T10:40:37.452Z,1461.00
2023-05-10T10:41:37.033Z,1129.00
2023-05-10T10:42:37.012Z,1155.00
2023-05-10T10:43:36.981Z,1518.00
2023-05-10T10:44:37.031Z,761.00
2023-05-10T10:45:37.022Z,2120.00
2023-05-10T10:46:36.983Z,1627.00
2023-05-10T10:47:36.932Z,3421.00
2023-05-10T10:48:36.936Z,2207.00
2023-05-10T10:49:36.933Z,2739.00
2023-05-10T10:50:36.928Z,1987.00
2023-05-10T10:51:36.898Z,1785.00
2023-05-10T10:52:36.918Z,2134.00
2023-05-10T10:53:36.887Z,1178.00
2023-05-10T10:54:36.881Z,916.00
2023-05-10T10:55:36.912Z,2241.00
2023-05-10T10:56:37.216Z,2575.00
2023-05-10T10:57:36.820Z,1037.00
2023-05-10T10:58:36.852Z,2772.00
2023-05-10T10:59:36.817Z,2468.00
2023-05-10T11:00:36.893Z,2631.00
2023-05-10T11:01:36.964Z,3112.00
2023-05-10T11:02:36.853Z,1322.00
2023-05-10T11:03:36.776Z,1023.00
2023-05-10T11:04:36.784Z,686.00
2023-05-10T11:05:36.774Z,503.00
2023-05-10T11:06:36.972Z,897.00
2023-05-10T11:07:36.715Z,1062.00
2023-05-10T11:08:38.301Z,2446.00
2023-05-10T11:09:36.703Z,2523.00
2023-05-10T11:10:36.783Z,2856.00
2023-05-10T11:11:36.691Z,489.00
2023-05-10T11:12:36.685Z,1345.00
2023-05-10T11:13:36.652Z,1521.00
2023-05-10T11:14:36.659Z,1495.00
2023-05-10T11:15:36.667Z,1842.00
2023-05-10T11:16:36.717Z,3638.00
2023-05-10T11:17:36.643Z,798.00
2023-05-10T11:18:36.699Z,1542.00
2023-05-10T11:19:36.594Z,4026.00
2023-05-10T11:20:36.615Z,1557.00
2023-05-10T11:21:36.599Z,567.00
2023-05-10T11:22:36.592Z,2529.00
2023-05-10T11:23:36.618Z,1080.00
2023-05-10T11:24:36.577Z,973.00
2023-05-10T11:25:36.523Z,912.00
2023-05-10T11:26:36.580Z,998.00
2023-05-10T11:27:36.528Z,901.00
2023-05-10T11:28:36.534Z,813.00
2023-05-10T11:29:36.489Z,714.00
2023-05-10T11:30:36.516Z,675.00
2023-05-10T11:31:36.504Z,957.00
2023-05-10T11:32:36.543Z,876.00
2023-05-10T11:33:36.449Z,832.00
2023-05-10T11:34:36.601Z,821.00
2023-05-10T11:35:36.450Z,862.00
2023-05-10T11:36:36.455Z,811.00
2023-05-10T11:37:36.394Z,749.00
2023-05-10T11:38:36.452Z,757.00
2023-05-10T11:39:36.412Z,795.00
2023-05-10T11:40:36.409Z,808.00
2023-05-10T11:41:36.383Z,822.00
2023-05-10T11:42:36.374Z,904.00
2023-05-10T11:43:36.338Z,1147.00
2023-05-10T11:44:36.390Z,981.00
2023-05-10T11:45:36.362Z,922.00
2023-05-10T11:46:36.360Z,923.00
2023-05-10T11:47:36.350Z,901.00
2023-05-10T11:48:36.310Z,802.00
2023-05-10T11:49:36.290Z,747.00
2023-05-10T11:50:36.299Z,751.00
2023-05-10T11:51:36.263Z,848.00
2023-05-10T11:52:36.286Z,814.00
2023-05-10T11:53:36.253Z,781.00
2023-05-10T11:54:36.286Z,794.00
2023-05-10T11:55:36.222Z,759.00
2023-05-10T11:56:36.239Z,697.00
2023-05-10T11:57:36.214Z,713.00
2023-05-10T11:58:36.214Z,675.00
2023-05-10T11:59:36.201Z,611.00
2023-05-10T12:00:36.210Z,666.00
2023-05-10T12:01:36.186Z,653.00
2023-05-10T12:02:36.226Z,580.00
2023-05-10T12:03:36.240Z,500.00
2023-05-10T12:04:36.210Z,457.00
2023-05-10T12:05:36.100Z,459.00
2023-05-10T12:06:36.138Z,499.00
2023-05-10T12:07:36.136Z,472.00
2023-05-10T12:08:36.114Z,461.00
2023-05-10T12:09:43.773Z,461.00
2023-05-10T12:10:36.086Z,442.00
2023-05-10T12:11:36.069Z,437.00
2023-05-10T12:12:36.064Z,443.00
2023-05-10T12:13:36.020Z,408.00
2023-05-10T12:14:36.081Z,451.00
2023-05-10T12:15:35.997Z,478.00
2023-05-10T12:16:36.062Z,594.00
2023-05-10T12:17:36.015Z,594.00
2023-05-10T12:18:36.047Z,555.00
2023-05-10T12:19:35.962Z,513.00
2023-05-10T12:20:35.968Z,474.00
2023-05-10T12:21:35.967Z,468.00
2023-05-10T12:22:35.948Z,462.00
2023-05-10T12:23:35.939Z,490.00
2023-05-10T12:24:35.939Z,535.00
2023-05-10T12:25:35.903Z,532.00
2023-05-10T12:26:35.931Z,492.00
2023-05-10T12:27:35.873Z,471.00
2023-05-10T12:28:35.886Z,490.00
2023-05-10T12:29:35.870Z,458.00
2023-05-10T12:30:35.947Z,410.00
2023-05-10T12:31:35.879Z,371.00
2023-05-10T12:32:35.878Z,348.00
2023-05-10T12:33:35.818Z,344.00
2023-05-10T12:34:35.823Z,319.00
2023-05-10T12:35:35.801Z,293.00
2023-05-10T12:36:35.807Z,243.00
2023-05-10T12:37:35.956Z,215.00
2023-05-10T12:38:35.786Z,179.00
2023-05-10T12:39:35.824Z,149.00
2023-05-10T12:40:35.809Z,120.00
2023-05-10T12:41:35.757Z,92.00
2023-05-10T12:42:35.781Z,76.00
2023-05-10T12:43:35.734Z,73.00
2023-05-10T12:44:35.710Z,85.00